sensor_id;sensor_type;location;lat;lon;timestamp;temperature;humidity
21508;DHT22;10915;54.352;9.074;2022-09-09T00:01:57;14.70;99.90
21508;DHT22;10915;54.352;9.074;2022-09-09T00:09:47;14.60;99.90
21508;DHT22;10915;54.352;9.074;2022-09-09T00:12:38;14.60;99.90
21508;DHT22;10915;54.352;9.074;2022-09-09T00:15:12;14.60;99.90
21508;DHT22;10915;54.352;9.074;2022-09-09T00:23:25;14.70;99.90
21508;DHT22;10915;54.352;9.074;2022-09-09T00:28:26;14.80;99.90
21508;DHT22;10915;54.352;9.074;2022-09-09T00:30:52;14.80;99.90
21508;DHT22;10915;54.352;9.074;2022-09-09T00:33:20;14.90;99.90
21508;DHT22;10915;54.352;9.074;2022-09-09T00:35:50;15.00;99.90
21508;DHT22;10915;54.352;9.074;2022-09-09T00:38:24;15.10;99.90
21508;DHT22;10915;54.352;9.074;2022-09-09T00:41:03;15.20;99.90
21508;DHT22;10915;54.352;9.074;2022-09-09T00:43:35;15.20;99.90
21508;DHT22;10915;54.352;9.074;2022-09-09T00:51:34;15.40;99.90
21508;DHT22;10915;54.352;9.074;2022-09-09T00:59:47;15.60;99.90
21508;DHT22;10915;54.352;9.074;2022-09-09T01:02:28;15.60;99.90
21508;DHT22;10915;54.352;9.074;2022-09-09T01:04:54;15.60;99.90
21508;DHT22;10915;54.352;9.074;2022-09-09T01:07:20;15.70;99.90
21508;DHT22;10915;54.352;9.074;2022-09-09T01:09:52;15.70;99.90
21508;DHT22;10915;54.352;9.074;2022-09-09T01:12:40;15.70;99.90
21508;DHT22;10915;54.352;9.074;2022-09-09T01:20:25;15.80;99.90
21508;DHT22;10915;54.352;9.074;2022-09-09T01:28:19;15.90;99.90
21508;DHT22;10915;54.352;9.074;2022-09-09T01:30:47;15.90;99.90
21508;DHT22;10915;54.352;9.074;2022-09-09T01:33:15;15.90;99.90
21508;DHT22;10915;54.352;9.074;2022-09-09T01:35:57;15.90;99.90
21508;DHT22;10915;54.352;9.074;2022-09-09T01:38:26;15.90;99.90
21508;DHT22;10915;54.352;9.074;2022-09-09T01:40:53;15.80;99.90
21508;DHT22;10915;54.352;9.074;2022-09-09T01:43:22;15.80;99.90
21508;DHT22;10915;54.352;9.074;2022-09-09T01:45:52;15.80;99.90
21508;DHT22;10915;54.352;9.074;2022-09-09T01:48:20;15.70;99.90
21508;DHT22;10915;54.352;9.074;2022-09-09T01:50:46;15.70;99.90
21508;DHT22;10915;54.352;9.074;2022-09-09T01:53:13;15.60;99.90
21508;DHT22;10915;54.352;9.074;2022-09-09T01:55:46;15.60;99.90
21508;DHT22;10915;54.352;9.074;2022-09-09T02:01:15;15.50;99.90
21508;DHT22;10915;54.352;9.074;2022-09-09T02:03:47;15.50;99.90
21508;DHT22;10915;54.352;9.074;2022-09-09T02:06:22;15.50;99.90
21508;DHT22;10915;54.352;9.074;2022-09-09T02:08:53;15.40;99.90
21508;DHT22;10915;54.352;9.074;2022-09-09T02:11:23;15.40;99.90
21508;DHT22;10915;54.352;9.074;2022-09-09T02:13:52;15.40;99.90
21508;DHT22;10915;54.352;9.074;2022-09-09T02:16:23;15.40;99.90
21508;DHT22;10915;54.352;9.074;2022-09-09T02:21:35;15.30;99.90
21508;DHT22;10915;54.352;9.074;2022-09-09T02:24:05;15.20;99.90
21508;DHT22;10915;54.352;9.074;2022-09-09T02:26:34;15.20;99.90
21508;DHT22;10915;54.352;9.074;2022-09-09T02:29:02;15.20;99.90
21508;DHT22;10915;54.352;9.074;2022-09-09T02:31:30;15.20;99.90
21508;DHT22;10915;54.352;9.074;2022-09-09T02:34:01;15.20;99.90
21508;DHT22;10915;54.352;9.074;2022-09-09T02:36:32;15.10;99.90
21508;DHT22;10915;54.352;9.074;2022-09-09T02:38:59;15.10;99.90
21508;DHT22;10915;54.352;9.074;2022-09-09T02:41:33;15.10;99.90
21508;DHT22;10915;54.352;9.074;2022-09-09T02:43:59;15.10;99.90
21508;DHT22;10915;54.352;9.074;2022-09-09T02:55:29;15.10;99.90
21508;DHT22;10915;54.352;9.074;2022-09-09T02:57:58;15.10;99.90
21508;DHT22;10915;54.352;9.074;2022-09-09T03:00:26;15.10;99.90
21508;DHT22;10915;54.352;9.074;2022-09-09T03:02:53;15.10;99.90
21508;DHT22;10915;54.352;9.074;2022-09-09T03:05:20;15.10;99.90
21508;DHT22;10915;54.352;9.074;2022-09-09T03:07:46;15.10;99.90
21508;DHT22;10915;54.352;9.074;2022-09-09T03:10:12;15.10;99.90
21508;DHT22;10915;54.352;9.074;2022-09-09T03:12:39;15.10;99.90
21508;DHT22;10915;54.352;9.074;2022-09-09T03:15:05;15.10;99.90
21508;DHT22;10915;54.352;9.074;2022-09-09T03:17:31;15.10;99.90
21508;DHT22;10915;54.352;9.074;2022-09-09T03:19:57;15.10;99.90
21508;DHT22;10915;54.352;9.074;2022-09-09T03:22:24;15.10;99.90
21508;DHT22;10915;54.352;9.074;2022-09-09T03:24:51;15.10;99.90
21508;DHT22;10915;54.352;9.074;2022-09-09T03:27:17;15.10;99.90
21508;DHT22;10915;54.352;9.074;2022-09-09T03:29:45;15.00;99.90
21508;DHT22;10915;54.352;9.074;2022-09-09T03:32:11;15.00;99.90
21508;DHT22;10915;54.352;9.074;2022-09-09T03:34:37;15.00;99.90
21508;DHT22;10915;54.352;9.074;2022-09-09T03:37:06;15.00;99.90
21508;DHT22;10915;54.352;9.074;2022-09-09T03:39:32;15.00;99.90
21508;DHT22;10915;54.352;9.074;2022-09-09T03:41:57;15.00;99.90
21508;DHT22;10915;54.352;9.074;2022-09-09T03:44:23;14.90;99.90
21508;DHT22;10915;54.352;9.074;2022-09-09T03:46:48;14.90;99.90
21508;DHT22;10915;54.352;9.074;2022-09-09T03:49:14;14.90;99.90
21508;DHT22;10915;54.352;9.074;2022-09-09T03:51:41;14.80;99.90
21508;DHT22;10915;54.352;9.074;2022-09-09T03:54:06;14.80;99.90
21508;DHT22;10915;54.352;9.074;2022-09-09T03:56:34;14.80;99.90
21508;DHT22;10915;54.352;9.074;2022-09-09T03:59:00;14.80;99.90
21508;DHT22;10915;54.352;9.074;2022-09-09T04:01:26;14.70;99.90
21508;DHT22;10915;54.352;9.074;2022-09-09T04:03:52;14.70;99.90
21508;DHT22;10915;54.352;9.074;2022-09-09T04:06:18;14.70;99.90
21508;DHT22;10915;54.352;9.074;2022-09-09T04:08:45;14.60;99.90
21508;DHT22;10915;54.352;9.074;2022-09-09T04:11:14;14.60;99.90
21508;DHT22;10915;54.352;9.074;2022-09-09T04:13:41;14.50;99.90
21508;DHT22;10915;54.352;9.074;2022-09-09T04:16:09;14.50;99.90
21508;DHT22;10915;54.352;9.074;2022-09-09T04:18:35;14.50;99.90
21508;DHT22;10915;54.352;9.074;2022-09-09T04:21:01;14.50;99.90
21508;DHT22;10915;54.352;9.074;2022-09-09T04:23:29;14.50;99.90
21508;DHT22;10915;54.352;9.074;2022-09-09T04:25:55;14.60;99.90
21508;DHT22;10915;54.352;9.074;2022-09-09T04:28:23;14.60;99.90
21508;DHT22;10915;54.352;9.074;2022-09-09T04:30:49;14.60;99.90
21508;DHT22;10915;54.352;9.074;2022-09-09T04:33:14;14.60;99.90
21508;DHT22;10915;54.352;9.074;2022-09-09T04:35:50;14.60;99.90
21508;DHT22;10915;54.352;9.074;2022-09-09T04:38:17;14.60;99.90
21508;DHT22;10915;54.352;9.074;2022-09-09T04:40:51;14.60;99.90
21508;DHT22;10915;54.352;9.074;2022-09-09T04:43:19;14.60;99.90
21508;DHT22;10915;54.352;9.074;2022-09-09T04:45:50;14.70;99.90
21508;DHT22;10915;54.352;9.074;2022-09-09T04:48:20;14.60;99.90
21508;DHT22;10915;54.352;9.074;2022-09-09T04:51:01;14.60;99.90
21508;DHT22;10915;54.352;9.074;2022-09-09T04:53:26;14.60;99.90
21508;DHT22;10915;54.352;9.074;2022-09-09T04:56:12;14.60;99.90
21508;DHT22;10915;54.352;9.074;2022-09-09T04:58:39;14.70;99.90
21508;DHT22;10915;54.352;9.074;2022-09-09T05:01:06;14.70;99.90
21508;DHT22;10915;54.352;9.074;2022-09-09T05:03:32;14.70;99.90
21508;DHT22;10915;54.352;9.074;2022-09-09T05:06:03;14.60;99.90
21508;DHT22;10915;54.352;9.074;2022-09-09T05:08:29;14.70;99.90
21508;DHT22;10915;54.352;9.074;2022-09-09T05:10:55;14.60;99.90
21508;DHT22;10915;54.352;9.074;2022-09-09T05:13:21;14.60;99.90
21508;DHT22;10915;54.352;9.074;2022-09-09T05:15:52;14.60;99.90
21508;DHT22;10915;54.352;9.074;2022-09-09T05:18:18;14.70;99.90
21508;DHT22;10915;54.352;9.074;2022-09-09T05:20:44;14.70;99.90
21508;DHT22;10915;54.352;9.074;2022-09-09T05:23:09;14.60;99.90
21508;DHT22;10915;54.352;9.074;2022-09-09T05:25:37;14.60;99.90
21508;DHT22;10915;54.352;9.074;2022-09-09T05:28:03;14.60;99.90
21508;DHT22;10915;54.352;9.074;2022-09-09T05:30:28;14.60;99.90
21508;DHT22;10915;54.352;9.074;2022-09-09T05:32:56;14.60;99.90
21508;DHT22;10915;54.352;9.074;2022-09-09T05:35:22;14.60;99.90
21508;DHT22;10915;54.352;9.074;2022-09-09T05:37:48;14.70;99.90
21508;DHT22;10915;54.352;9.074;2022-09-09T05:40:14;14.70;99.90
21508;DHT22;10915;54.352;9.074;2022-09-09T05:42:40;14.70;99.90
21508;DHT22;10915;54.352;9.074;2022-09-09T05:45:08;14.70;99.90
21508;DHT22;10915;54.352;9.074;2022-09-09T05:47:34;14.80;99.90
21508;DHT22;10915;54.352;9.074;2022-09-09T05:50:00;14.70;99.90
21508;DHT22;10915;54.352;9.074;2022-09-09T05:52:26;14.70;99.90
21508;DHT22;10915;54.352;9.074;2022-09-09T05:54:52;14.80;99.90
21508;DHT22;10915;54.352;9.074;2022-09-09T05:57:20;14.80;99.90
21508;DHT22;10915;54.352;9.074;2022-09-09T05:59:46;14.80;99.90
21508;DHT22;10915;54.352;9.074;2022-09-09T06:02:12;14.80;99.90
21508;DHT22;10915;54.352;9.074;2022-09-09T06:04:38;14.80;99.90
21508;DHT22;10915;54.352;9.074;2022-09-09T06:07:05;14.80;99.90
21508;DHT22;10915;54.352;9.074;2022-09-09T06:09:30;14.80;99.90
21508;DHT22;10915;54.352;9.074;2022-09-09T06:11:56;14.90;99.90
21508;DHT22;10915;54.352;9.074;2022-09-09T06:14:23;15.00;99.90
21508;DHT22;10915;54.352;9.074;2022-09-09T06:16:50;15.10;99.90
21508;DHT22;10915;54.352;9.074;2022-09-09T06:19:16;15.20;99.90
21508;DHT22;10915;54.352;9.074;2022-09-09T06:21:42;15.20;99.90
21508;DHT22;10915;54.352;9.074;2022-09-09T06:24:10;15.30;99.90
21508;DHT22;10915;54.352;9.074;2022-09-09T06:26:39;15.40;99.90
21508;DHT22;10915;54.352;9.074;2022-09-09T06:29:09;15.40;99.90
21508;DHT22;10915;54.352;9.074;2022-09-09T06:31:36;15.40;99.90
21508;DHT22;10915;54.352;9.074;2022-09-09T06:34:05;15.40;99.90
21508;DHT22;10915;54.352;9.074;2022-09-09T06:36:33;15.40;99.90
21508;DHT22;10915;54.352;9.074;2022-09-09T06:38:59;15.40;99.90
21508;DHT22;10915;54.352;9.074;2022-09-09T06:41:28;15.50;99.90
21508;DHT22;10915;54.352;9.074;2022-09-09T06:43:54;15.60;99.90
21508;DHT22;10915;54.352;9.074;2022-09-09T06:46:25;15.60;99.90
21508;DHT22;10915;54.352;9.074;2022-09-09T06:48:54;15.60;99.90
21508;DHT22;10915;54.352;9.074;2022-09-09T06:51:32;15.60;99.90
21508;DHT22;10915;54.352;9.074;2022-09-09T06:54:00;15.70;99.90
21508;DHT22;10915;54.352;9.074;2022-09-09T06:56:38;15.70;99.90
21508;DHT22;10915;54.352;9.074;2022-09-09T06:59:07;15.80;99.90
21508;DHT22;10915;54.352;9.074;2022-09-09T07:01:42;15.90;99.90
21508;DHT22;10915;54.352;9.074;2022-09-09T07:04:12;15.90;99.90
21508;DHT22;10915;54.352;9.074;2022-09-09T07:06:41;15.90;99.90
21508;DHT22;10915;54.352;9.074;2022-09-09T07:09:13;16.00;99.90
21508;DHT22;10915;54.352;9.074;2022-09-09T07:11:45;16.10;99.90
21508;DHT22;10915;54.352;9.074;2022-09-09T07:14:11;16.20;99.90
21508;DHT22;10915;54.352;9.074;2022-09-09T07:16:42;16.30;99.90
21508;DHT22;10915;54.352;9.074;2022-09-09T07:19:08;16.50;99.90
21508;DHT22;10915;54.352;9.074;2022-09-09T07:21:34;16.60;99.90
21508;DHT22;10915;54.352;9.074;2022-09-09T07:23:59;16.70;99.90
21508;DHT22;10915;54.352;9.074;2022-09-09T07:26:27;16.80;99.90
21508;DHT22;10915;54.352;9.074;2022-09-09T07:28:54;16.90;99.90
21508;DHT22;10915;54.352;9.074;2022-09-09T07:31:24;17.00;99.90
21508;DHT22;10915;54.352;9.074;2022-09-09T07:33:51;17.20;99.90
21508;DHT22;10915;54.352;9.074;2022-09-09T07:36:18;17.20;99.90
21508;DHT22;10915;54.352;9.074;2022-09-09T07:38:49;17.30;99.90
21508;DHT22;10915;54.352;9.074;2022-09-09T07:41:19;17.30;99.90
21508;DHT22;10915;54.352;9.074;2022-09-09T07:43:46;17.50;99.90
21508;DHT22;10915;54.352;9.074;2022-09-09T07:46:14;17.60;99.90
21508;DHT22;10915;54.352;9.074;2022-09-09T07:48:50;17.70;99.90
21508;DHT22;10915;54.352;9.074;2022-09-09T07:51:25;17.90;99.90
21508;DHT22;10915;54.352;9.074;2022-09-09T07:54:00;18.00;99.90
21508;DHT22;10915;54.352;9.074;2022-09-09T07:56:28;18.10;99.90
21508;DHT22;10915;54.352;9.074;2022-09-09T07:58:55;18.20;99.90
21508;DHT22;10915;54.352;9.074;2022-09-09T08:01:23;18.30;99.90
21508;DHT22;10915;54.352;9.074;2022-09-09T08:04:02;18.30;99.90
21508;DHT22;10915;54.352;9.074;2022-09-09T08:06:34;18.40;99.90
21508;DHT22;10915;54.352;9.074;2022-09-09T08:09:00;18.30;99.90
21508;DHT22;10915;54.352;9.074;2022-09-09T08:11:28;18.20;99.90
21508;DHT22;10915;54.352;9.074;2022-09-09T08:13:56;18.20;99.90
21508;DHT22;10915;54.352;9.074;2022-09-09T08:16:24;18.30;99.90
21508;DHT22;10915;54.352;9.074;2022-09-09T08:18:51;18.20;99.90
21508;DHT22;10915;54.352;9.074;2022-09-09T08:21:29;18.20;99.90
21508;DHT22;10915;54.352;9.074;2022-09-09T08:23:56;18.20;99.90
21508;DHT22;10915;54.352;9.074;2022-09-09T08:26:27;18.20;99.90
21508;DHT22;10915;54.352;9.074;2022-09-09T08:28:56;18.20;99.90
21508;DHT22;10915;54.352;9.074;2022-09-09T08:31:24;18.20;99.90
21508;DHT22;10915;54.352;9.074;2022-09-09T08:33:50;18.20;99.90
21508;DHT22;10915;54.352;9.074;2022-09-09T08:36:19;18.30;99.90
21508;DHT22;10915;54.352;9.074;2022-09-09T08:38:55;18.30;99.90
21508;DHT22;10915;54.352;9.074;2022-09-09T08:41:30;18.30;99.90
21508;DHT22;10915;54.352;9.074;2022-09-09T08:46:58;18.30;99.90
21508;DHT22;10915;54.352;9.074;2022-09-09T08:49:44;18.20;99.90
21508;DHT22;10915;54.352;9.074;2022-09-09T08:52:48;18.20;99.90
21508;DHT22;10915;54.352;9.074;2022-09-09T08:56:05;18.10;99.90
21508;DHT22;10915;54.352;9.074;2022-09-09T08:58:18;18.00;99.90
21508;DHT22;10915;54.352;9.074;2022-09-09T09:11:51;18.00;99.90
21508;DHT22;10915;54.352;9.074;2022-09-09T09:14:23;18.00;99.90
21508;DHT22;10915;54.352;9.074;2022-09-09T09:19:15;18.00;99.90
21508;DHT22;10915;54.352;9.074;2022-09-09T09:21:44;18.00;99.90
21508;DHT22;10915;54.352;9.074;2022-09-09T09:24:45;18.00;99.90
21508;DHT22;10915;54.352;9.074;2022-09-09T09:27:15;18.10;99.90
21508;DHT22;10915;54.352;9.074;2022-09-09T09:29:42;18.00;99.90
21508;DHT22;10915;54.352;9.074;2022-09-09T09:32:13;18.00;99.90
21508;DHT22;10915;54.352;9.074;2022-09-09T09:34:39;18.00;99.90
21508;DHT22;10915;54.352;9.074;2022-09-09T09:37:16;18.00;99.90
21508;DHT22;10915;54.352;9.074;2022-09-09T09:39:46;18.00;99.90
21508;DHT22;10915;54.352;9.074;2022-09-09T09:42:13;18.00;99.90
21508;DHT22;10915;54.352;9.074;2022-09-09T09:44:40;18.10;99.90
21508;DHT22;10915;54.352;9.074;2022-09-09T09:47:08;18.10;99.90
21508;DHT22;10915;54.352;9.074;2022-09-09T09:49:34;18.20;99.90
21508;DHT22;10915;54.352;9.074;2022-09-09T09:52:01;18.30;99.90
21508;DHT22;10915;54.352;9.074;2022-09-09T09:54:30;18.40;99.90
21508;DHT22;10915;54.352;9.074;2022-09-09T09:57:11;18.50;99.90
21508;DHT22;10915;54.352;9.074;2022-09-09T09:59:37;18.70;99.90
21508;DHT22;10915;54.352;9.074;2022-09-09T10:02:23;18.80;99.90
21508;DHT22;10915;54.352;9.074;2022-09-09T10:05:12;19.00;99.90
21508;DHT22;10915;54.352;9.074;2022-09-09T10:07:38;19.10;99.90
21508;DHT22;10915;54.352;9.074;2022-09-09T10:10:05;19.10;99.90
21508;DHT22;10915;54.352;9.074;2022-09-09T10:12:54;19.10;99.90
21508;DHT22;10915;54.352;9.074;2022-09-09T10:15:41;19.10;99.90
21508;DHT22;10915;54.352;9.074;2022-09-09T10:35:30;20.30;99.90
21508;DHT22;10915;54.352;9.074;2022-09-09T10:38:17;20.50;99.90
21508;DHT22;10915;54.352;9.074;2022-09-09T10:43:59;20.70;99.90
21508;DHT22;10915;54.352;9.074;2022-09-09T10:46:40;20.70;99.90
21508;DHT22;10915;54.352;9.074;2022-09-09T10:52:11;20.90;99.90
21508;DHT22;10915;54.352;9.074;2022-09-09T10:54:59;20.90;99.90
21508;DHT22;10915;54.352;9.074;2022-09-09T10:57:31;21.00;99.90
21508;DHT22;10915;54.352;9.074;2022-09-09T11:00:04;21.00;99.90
21508;DHT22;10915;54.352;9.074;2022-09-09T11:02:33;21.00;99.90
21508;DHT22;10915;54.352;9.074;2022-09-09T11:05:06;20.90;99.90
21508;DHT22;10915;54.352;9.074;2022-09-09T11:07:47;21.00;99.90
21508;DHT22;10915;54.352;9.074;2022-09-09T11:12:52;21.30;99.90
21508;DHT22;10915;54.352;9.074;2022-09-09T11:15:30;21.50;99.90
21508;DHT22;10915;54.352;9.074;2022-09-09T11:17:59;21.60;99.90
21508;DHT22;10915;54.352;9.074;2022-09-09T11:20:26;21.60;99.90
21508;DHT22;10915;54.352;9.074;2022-09-09T11:23:16;21.50;99.90
21508;DHT22;10915;54.352;9.074;2022-09-09T11:41:39;21.50;99.90
21508;DHT22;10915;54.352;9.074;2022-09-09T11:44:28;21.30;99.90
21508;DHT22;10915;54.352;9.074;2022-09-09T11:47:29;21.50;99.90
21508;DHT22;10915;54.352;9.074;2022-09-09T11:50:29;21.90;99.90
21508;DHT22;10915;54.352;9.074;2022-09-09T11:55:39;22.70;99.90
21508;DHT22;10915;54.352;9.074;2022-09-09T11:58:05;22.90;99.90
21508;DHT22;10915;54.352;9.074;2022-09-09T12:00:45;23.10;99.90
21508;DHT22;10915;54.352;9.074;2022-09-09T12:08:57;23.50;99.90
21508;DHT22;10915;54.352;9.074;2022-09-09T12:11:28;23.60;99.90
21508;DHT22;10915;54.352;9.074;2022-09-09T12:13:59;23.70;99.90
21508;DHT22;10915;54.352;9.074;2022-09-09T12:16:35;23.70;99.90
21508;DHT22;10915;54.352;9.074;2022-09-09T12:19:20;23.70;99.90
21508;DHT22;10915;54.352;9.074;2022-09-09T12:21:54;23.70;99.90
21508;DHT22;10915;54.352;9.074;2022-09-09T12:24:37;23.70;99.90
21508;DHT22;10915;54.352;9.074;2022-09-09T12:32:22;23.70;99.90
21508;DHT22;10915;54.352;9.074;2022-09-09T12:34:55;23.60;99.90
21508;DHT22;10915;54.352;9.074;2022-09-09T12:37:36;23.60;99.90
21508;DHT22;10915;54.352;9.074;2022-09-09T12:40:03;23.60;99.90
21508;DHT22;10915;54.352;9.074;2022-09-09T12:42:30;23.60;99.90
21508;DHT22;10915;54.352;9.074;2022-09-09T12:45:03;23.60;99.90
21508;DHT22;10915;54.352;9.074;2022-09-09T12:47:41;23.70;99.90
21508;DHT22;10915;54.352;9.074;2022-09-09T12:50:31;23.70;99.90
21508;DHT22;10915;54.352;9.074;2022-09-09T12:53:01;23.80;99.90
21508;DHT22;10915;54.352;9.074;2022-09-09T12:55:32;23.90;99.90
21508;DHT22;10915;54.352;9.074;2022-09-09T12:57:59;24.00;99.90
21508;DHT22;10915;54.352;9.074;2022-09-09T13:00:26;24.10;99.90
21508;DHT22;10915;54.352;9.074;2022-09-09T13:02:57;24.20;99.90
21508;DHT22;10915;54.352;9.074;2022-09-09T13:05:42;23.90;99.90
21508;DHT22;10915;54.352;9.074;2022-09-09T13:08:12;23.80;99.90
21508;DHT22;10915;54.352;9.074;2022-09-09T13:11:00;23.70;99.90
21508;DHT22;10915;54.352;9.074;2022-09-09T13:13:29;23.70;99.90
21508;DHT22;10915;54.352;9.074;2022-09-09T13:15:57;23.60;99.90
21508;DHT22;10915;54.352;9.074;2022-09-09T13:18:29;23.50;99.90
21508;DHT22;10915;54.352;9.074;2022-09-09T13:20:56;23.00;99.90
21508;DHT22;10915;54.352;9.074;2022-09-09T13:23:36;22.90;99.90
21508;DHT22;10915;54.352;9.074;2022-09-09T13:26:05;23.10;99.90
21508;DHT22;10915;54.352;9.074;2022-09-09T13:28:31;23.00;99.90
21508;DHT22;10915;54.352;9.074;2022-09-09T13:31:01;22.80;99.90
21508;DHT22;10915;54.352;9.074;2022-09-09T13:33:37;22.40;99.90
21508;DHT22;10915;54.352;9.074;2022-09-09T13:36:11;22.50;99.90
21508;DHT22;10915;54.352;9.074;2022-09-09T13:38:52;22.40;99.90
21508;DHT22;10915;54.352;9.074;2022-09-09T13:41:27;22.40;99.90
21508;DHT22;10915;54.352;9.074;2022-09-09T13:43:54;22.50;99.90
21508;DHT22;10915;54.352;9.074;2022-09-09T13:49:00;22.20;99.90
21508;DHT22;10915;54.352;9.074;2022-09-09T13:51:33;22.10;99.90
21508;DHT22;10915;54.352;9.074;2022-09-09T13:53:59;22.00;99.90
21508;DHT22;10915;54.352;9.074;2022-09-09T13:56:26;22.00;99.90
21508;DHT22;10915;54.352;9.074;2022-09-09T13:58:52;21.90;99.90
21508;DHT22;10915;54.352;9.074;2022-09-09T14:01:17;21.90;99.90
21508;DHT22;10915;54.352;9.074;2022-09-09T14:03:43;21.70;99.90
21508;DHT22;10915;54.352;9.074;2022-09-09T14:06:10;21.70;99.90
21508;DHT22;10915;54.352;9.074;2022-09-09T14:08:36;21.70;99.90
21508;DHT22;10915;54.352;9.074;2022-09-09T14:11:05;21.60;99.90
21508;DHT22;10915;54.352;9.074;2022-09-09T14:13:32;21.40;99.90
21508;DHT22;10915;54.352;9.074;2022-09-09T14:15:58;21.40;99.90
21508;DHT22;10915;54.352;9.074;2022-09-09T14:18:23;21.40;99.90
21508;DHT22;10915;54.352;9.074;2022-09-09T14:20:50;21.30;99.90
21508;DHT22;10915;54.352;9.074;2022-09-09T14:23:16;21.40;99.90
21508;DHT22;10915;54.352;9.074;2022-09-09T14:25:43;21.30;99.90
21508;DHT22;10915;54.352;9.074;2022-09-09T14:28:10;21.30;99.90
21508;DHT22;10915;54.352;9.074;2022-09-09T14:30:40;21.20;99.90
21508;DHT22;10915;54.352;9.074;2022-09-09T14:33:07;21.20;99.90
21508;DHT22;10915;54.352;9.074;2022-09-09T14:35:33;21.00;99.90
21508;DHT22;10915;54.352;9.074;2022-09-09T14:37:59;20.80;99.90
21508;DHT22;10915;54.352;9.074;2022-09-09T14:40:26;20.80;99.90
21508;DHT22;10915;54.352;9.074;2022-09-09T14:42:53;20.80;99.90
21508;DHT22;10915;54.352;9.074;2022-09-09T14:45:18;20.90;99.90
21508;DHT22;10915;54.352;9.074;2022-09-09T14:47:44;20.90;99.90
21508;DHT22;10915;54.352;9.074;2022-09-09T14:50:10;20.90;99.90
21508;DHT22;10915;54.352;9.074;2022-09-09T14:52:37;20.70;99.90
21508;DHT22;10915;54.352;9.074;2022-09-09T14:55:03;20.70;99.90
21508;DHT22;10915;54.352;9.074;2022-09-09T14:57:29;20.70;99.90
21508;DHT22;10915;54.352;9.074;2022-09-09T14:59:56;20.70;99.90
21508;DHT22;10915;54.352;9.074;2022-09-09T15:02:22;20.70;99.90
21508;DHT22;10915;54.352;9.074;2022-09-09T15:04:48;20.60;99.90
21508;DHT22;10915;54.352;9.074;2022-09-09T15:07:15;20.60;99.90
21508;DHT22;10915;54.352;9.074;2022-09-09T15:09:42;20.50;99.90
21508;DHT22;10915;54.352;9.074;2022-09-09T15:12:08;20.30;99.90
21508;DHT22;10915;54.352;9.074;2022-09-09T15:14:34;20.20;99.90
21508;DHT22;10915;54.352;9.074;2022-09-09T15:17:00;20.20;99.90
21508;DHT22;10915;54.352;9.074;2022-09-09T15:19:26;20.10;99.90
21508;DHT22;10915;54.352;9.074;2022-09-09T15:21:52;20.00;99.90
21508;DHT22;10915;54.352;9.074;2022-09-09T15:24:17;19.90;99.90
21508;DHT22;10915;54.352;9.074;2022-09-09T15:26:43;19.80;99.90
21508;DHT22;10915;54.352;9.074;2022-09-09T15:29:09;19.40;99.90
21508;DHT22;10915;54.352;9.074;2022-09-09T15:31:35;19.00;99.90
21508;DHT22;10915;54.352;9.074;2022-09-09T15:34:03;18.50;99.90
21508;DHT22;10915;54.352;9.074;2022-09-09T15:36:43;18.10;99.90
21508;DHT22;10915;54.352;9.074;2022-09-09T15:39:11;17.80;99.90
21508;DHT22;10915;54.352;9.074;2022-09-09T15:41:45;17.60;99.90
21508;DHT22;10915;54.352;9.074;2022-09-09T15:44:11;17.30;99.90
21508;DHT22;10915;54.352;9.074;2022-09-09T15:46:44;17.10;99.90
21508;DHT22;10915;54.352;9.074;2022-09-09T15:51:42;16.60;99.90
21508;DHT22;10915;54.352;9.074;2022-09-09T15:54:10;16.50;99.90
21508;DHT22;10915;54.352;9.074;2022-09-09T15:56:37;16.30;99.90
21508;DHT22;10915;54.352;9.074;2022-09-09T15:59:03;16.00;99.90
21508;DHT22;10915;54.352;9.074;2022-09-09T16:01:30;15.90;99.90
21508;DHT22;10915;54.352;9.074;2022-09-09T16:03:57;15.80;99.90
21508;DHT22;10915;54.352;9.074;2022-09-09T16:06:24;15.70;99.90
21508;DHT22;10915;54.352;9.074;2022-09-09T16:08:52;15.60;99.90
21508;DHT22;10915;54.352;9.074;2022-09-09T16:11:26;15.70;99.90
21508;DHT22;10915;54.352;9.074;2022-09-09T16:13:54;15.80;99.90
21508;DHT22;10915;54.352;9.074;2022-09-09T16:16:22;15.90;99.90
21508;DHT22;10915;54.352;9.074;2022-09-09T16:18:53;16.00;99.90
21508;DHT22;10915;54.352;9.074;2022-09-09T16:21:31;16.00;99.90
21508;DHT22;10915;54.352;9.074;2022-09-09T16:23:59;16.10;99.90
21508;DHT22;10915;54.352;9.074;2022-09-09T16:26:25;16.10;99.90
21508;DHT22;10915;54.352;9.074;2022-09-09T16:28:51;15.90;99.90
21508;DHT22;10915;54.352;9.074;2022-09-09T16:31:21;15.90;99.90
21508;DHT22;10915;54.352;9.074;2022-09-09T16:33:47;15.90;99.90
21508;DHT22;10915;54.352;9.074;2022-09-09T16:36:21;16.00;99.90
21508;DHT22;10915;54.352;9.074;2022-09-09T16:38:47;16.10;99.90
21508;DHT22;10915;54.352;9.074;2022-09-09T16:41:16;16.20;99.90
21508;DHT22;10915;54.352;9.074;2022-09-09T16:43:42;16.20;99.90
21508;DHT22;10915;54.352;9.074;2022-09-09T16:46:16;16.10;99.90
21508;DHT22;10915;54.352;9.074;2022-09-09T16:48:44;16.20;99.90
21508;DHT22;10915;54.352;9.074;2022-09-09T16:51:20;16.40;99.90
21508;DHT22;10915;54.352;9.074;2022-09-09T16:53:46;16.40;99.90
21508;DHT22;10915;54.352;9.074;2022-09-09T16:56:15;16.50;99.90
21508;DHT22;10915;54.352;9.074;2022-09-09T16:58:42;16.40;99.90
21508;DHT22;10915;54.352;9.074;2022-09-09T17:01:10;16.50;99.90
21508;DHT22;10915;54.352;9.074;2022-09-09T17:03:39;16.40;99.90
21508;DHT22;10915;54.352;9.074;2022-09-09T17:06:10;16.40;99.90
21508;DHT22;10915;54.352;9.074;2022-09-09T17:08:35;16.60;99.90
21508;DHT22;10915;54.352;9.074;2022-09-09T17:11:01;16.70;99.90
21508;DHT22;10915;54.352;9.074;2022-09-09T17:13:27;16.50;99.90
21508;DHT22;10915;54.352;9.074;2022-09-09T17:15:52;16.40;99.90
21508;DHT22;10915;54.352;9.074;2022-09-09T17:18:18;16.20;99.90
21508;DHT22;10915;54.352;9.074;2022-09-09T17:20:43;16.20;99.90
21508;DHT22;10915;54.352;9.074;2022-09-09T17:23:11;16.10;99.90
21508;DHT22;10915;54.352;9.074;2022-09-09T17:25:38;16.10;99.90
21508;DHT22;10915;54.352;9.074;2022-09-09T17:28:04;16.10;99.90
21508;DHT22;10915;54.352;9.074;2022-09-09T17:30:34;16.00;99.90
21508;DHT22;10915;54.352;9.074;2022-09-09T17:33:00;16.00;99.90
21508;DHT22;10915;54.352;9.074;2022-09-09T17:35:26;16.00;99.90
21508;DHT22;10915;54.352;9.074;2022-09-09T17:37:53;16.00;99.90
21508;DHT22;10915;54.352;9.074;2022-09-09T17:40:20;15.90;99.90
21508;DHT22;10915;54.352;9.074;2022-09-09T17:42:45;15.90;99.90
21508;DHT22;10915;54.352;9.074;2022-09-09T17:45:12;15.90;99.90
21508;DHT22;10915;54.352;9.074;2022-09-09T17:47:38;16.00;99.90
21508;DHT22;10915;54.352;9.074;2022-09-09T17:50:04;16.10;99.90
21508;DHT22;10915;54.352;9.074;2022-09-09T17:52:31;16.10;99.90
21508;DHT22;10915;54.352;9.074;2022-09-09T17:54:57;16.10;99.90